Duncan, West Virginia
Current Conditions -  °F | °C
As of 3:53 PM on Wednesday 17 Dec 2014 (Local Time) from KPKB Reporting Station
Overcast Overcast  
Wind Chill: 25°   Ceiling: 2600
Heat Index: 33°   Visibility: 10mi
Dew Point: 23°   Wind: 10mph
Humidity: 66%   Direction: 280°W
Pressure: 30.18"   Gusts: NA
Location:  38.9557°N, 81.5714°W
Report Text: KPKB 172053Z 28009KT 10SM OVC026 01/M05 A3018 RMK AO2 SLP226 T00061050 55001
Loading
Personal Weather Stations






























Interactive Weather Map New forecast layout! Learn more

10-Day Weather Forecast

Advertisements
Track Severe Weather on mobile